Lake Levels Lake Levels   »   United States   »   Texas
LAKES RIVERS MARINAS NEWS HOUSES EVENTS MAPS
1,681 Lakes:
Lake Store

Lake Levels in Texas, United States

Lake Name Current
Level
Full Pool +/-
Full Pool
Reading
Date - Time
Alan Henry (TX) 2,216.45 2,224.00 -7.55 9/16/2019  12:30 AM
Amistad (TX) 1,084.26 1,117.00 -32.74 9/16/2019  12:15 AM
Amon Carter (TX) 919.74 920.00 -0.26 9/16/2019  12:00 AM
Aquilla (TX) 535.86 537.50 -1.64 9/16/2019  12:30 AM
Arlington (TX) 545.66 550.00 -4.34 9/16/2019  12:15 AM
Arrowhead (TX) 924.58 926.00 -1.42 9/16/2019  12:00 AM
Athens (TX) 439.21 440.00 -0.79 9/16/2019  12:30 AM
Austin (TX) 491.95 492.80 -0.85 9/16/2019  12:00 AM
Bardwell (TX) 419.71 421.00 -1.29 9/16/2019  12:30 AM
Belton (TX) 593.14 594.00 -0.86 9/16/2019  12:00 AM
Benbrook (TX) 687.17 694.00 -6.83 9/16/2019  12:00 AM
Bob Sandlin (TX) 336.59 337.50 -0.91 9/15/2019  9:50 AM
Bonham (TX) 563.64 565.00 -1.36 9/16/2019  12:00 AM
Brady Creek (TX) 1,741.64 1,743.00 -1.36 9/16/2019  12:45 AM
Bridgeport (TX) 833.05 836.00 -2.95 9/16/2019  12:00 AM
Brownwood (TX) 1,422.48 1,425.00 -2.52 9/16/2019  12:30 AM
Buchanan (TX) 1,016.80 1,020.50 -3.70 9/15/2019  10:05 AM
Caddo (LA TX) 168.50 168.50 -0.00 9/15/2019  7:00 AM
Canyon (TX) 907.86 909.00 -1.14 9/16/2019  12:15 AM
Cedar Creek (TX) 320.60 322.00 -1.40 9/16/2019  12:45 AM
Champion Creek (TX) 2,073.54 2,083.00 -9.46 9/15/2019  9:39 AM
Cherokee (TX) 278.84 280.00 -1.16 9/15/2019  8:45 PM
Choke Canyon (TX) 204.34 220.50 -16.16 9/15/2019  7:30 AM
Cisco (TX) 1,520.43 1,520.00 0.43 9/16/2019  12:30 AM
Coleman (TX) 1,715.69 1,718.00 -2.31 9/16/2019  12:30 AM
Coleto Creek (TX) 95.74 98.28 -2.54 9/16/2019  12:00 AM
Colorado City (TX) 2,058.33 2,070.20 -11.87 9/15/2019  9:39 AM
Conroe (TX) 198.80 201.00 -2.20 9/16/2019  12:45 AM
Corpus Christi (TX) 92.31 94.00 -1.69 9/15/2019  7:55 AM
Cypress Springs (TX) 178.76 378.00 -199.24 9/15/2019  9:50 AM
E. V. Spence (TX) 1,863.00 1,898.00 -35.00 9/16/2019  12:00 AM
Eagle Mountain (TX) 647.36 649.00 -1.64 9/16/2019  12:00 AM
Falcon (TX) 266.07 301.20 -35.13 9/16/2019  12:15 AM
Fork (TX) 401.88 403.00 -1.12 9/16/2019  12:30 AM
Georgetown (TX) 782.55 791.00 -8.45 9/16/2019  12:00 AM
Graham (TX) 1,073.30 1,075.00 -1.70 9/16/2019  12:00 AM
Granbury (TX) 692.40 693.00 -0.60 9/16/2019  12:30 AM
Granger (TX) 503.96 504.00 -0.04 9/16/2019  12:00 AM
Grapevine (TX) 534.49 535.00 -0.51 9/16/2019  12:45 AM
Hords Creek (TX) 1,897.55 1,900.00 -2.45 9/16/2019  12:30 AM
Houston (TX) 41.36 41.70 -0.34 9/16/2019  12:30 AM
Hubbard Creek (TX) 1,181.90 1,183.00 -1.10 9/16/2019  12:15 AM
Hubert M Moss (TX) 714.48 715.00 -0.52 9/16/2019  12:15 AM
Inks (TX) 887.18 886.90 0.28 9/16/2019  12:00 AM
Jacksonville (TX) 421.08 422.00 -0.92 9/15/2019  12:00 AM
JB Thomas (TX) 2,231.06 2,258.00 -26.94 9/16/2019  12:45 AM
Jim Chapman (TX) 439.02 440.00 -0.98 9/15/2019  9:50 AM
Joe Pool (TX) 519.94 522.00 -2.06 9/16/2019  12:00 AM
Kemp (TX) 1,142.06 1,144.00 -1.94 9/16/2019  12:15 AM
Kickapoo (TX) 1,043.33 1,045.00 -1.67 9/16/2019  12:00 AM
Lake O' the Pines (TX) 230.15 228.50 1.65 9/15/2019  9:50 AM
Lavon (TX) 488.95 492.00 -3.05 9/16/2019  12:00 AM
Leon (TX) 1,373.21 9/16/2019  12:45 AM
Lewisville (TX) 521.05 522.00 -0.95 9/16/2019  12:15 AM
Limestone (TX) 361.06 363.00 -1.94 9/15/2019  6:45 PM
Livingston (TX) 130.43 131.00 -0.57 9/15/2019  12:00 AM
Lyndon B. Johnson (TX) 824.69 825.00 -0.31 9/15/2019  10:05 AM
MacKenzie (TX) 3,020.28 3,100.00 -79.72 9/16/2019  12:30 AM
Marble Falls (TX) 736.29 737.00 -0.71 9/15/2019  10:05 AM
Martin Creek (TX) 303.57 306.00 -2.43 9/16/2019  12:30 AM
Medina (TX) 1,059.91 1,062.00 -2.09 9/16/2019  12:00 AM
Meredith (TX) 2,888.53 2,941.00 -52.47 9/16/2019  12:30 AM
Mexia (TX) 446.75 448.30 -1.55 9/16/2019  12:15 AM
Millers Creek (TX) 1,333.08 1,334.00 -0.92 9/16/2019  12:00 AM
Mineral Wells (TX) 862.49 863.00 -0.51 9/16/2019  3:30 AM
Moss Creek (TX) 2,331.75 2,337.00 -5.25 9/16/2019  12:30 AM
Murvaul (TX) 264.70 265.50 -0.80 9/15/2019  9:50 AM
Nacogdoches (TX) 276.98 279.00 -2.02 9/15/2019  9:50 AM
Natural Dam Salt (TX) 2,447.28 2,457.00 -9.72 9/15/2019  12:00 AM
Navarro Mills (TX) 422.90 424.50 -1.60 9/16/2019  12:00 AM
Nocona (TX) 826.34 827.00 -0.66 9/16/2019  12:00 AM
O. C. Fisher (TX) 1,871.74 1,908.00 -36.26 9/16/2019  12:00 AM
O.H. Ivie (TX) 1,542.51 1,551.50 -8.99 9/15/2019  4:45 PM
Oak Creek (TX) 1,998.70 2,000.00 -1.30 9/15/2019  12:00 AM
Palestine (TX) 343.79 345.00 -1.21 9/16/2019  12:00 AM
Palo Pinto (TX) 865.06 867.00 -1.94 9/16/2019  12:15 AM
Pat Cleburne (TX) 731.67 733.60 -1.93 9/16/2019  12:00 AM
Pat Mayse (TX) 450.04 451.00 -0.96 9/15/2019  9:50 AM
Phantom Hill (TX) 1,634.55 1,635.90 -1.35 9/16/2019  12:30 AM
Possum Kingdom (TX) 997.99 1,000.00 -2.01 9/15/2019  7:43 AM
Proctor (TX) 1,159.98 1,162.00 -2.02 9/16/2019  12:30 AM
Ray Hubbard (TX) 433.11 435.50 -2.39 9/16/2019  12:45 AM
Ray Roberts (TX) 632.03 632.50 -0.47 9/16/2019  12:15 AM
Red Bluff (TX) 2,817.84 2,827.13 -9.29 9/16/2019  12:15 AM
Richland Chambers (TX) 313.25 315.00 -1.75 9/16/2019  12:45 AM
Sam Rayburn (TX) 162.44 164.40 -1.96 9/16/2019  12:00 AM
Somerville (TX) 238.44 238.00 0.44 9/16/2019  12:00 AM
Squaw Creek (TX) 773.73 775.00 -1.27 9/16/2019  12:00 AM
Stamford (TX) 1,415.88 1,417.00 -1.12 9/16/2019  12:30 AM
Steinhagen Reservoir (TX) 82.73 82.40 0.33 9/16/2019  12:00 AM
Stillhouse Hollow (TX) 621.21 622.00 -0.79 9/16/2019  12:00 AM
Tawakoni (TX) 436.70 437.50 -0.80 9/16/2019  12:15 AM
Texana (TX) 40.34 44.00 -3.66 9/16/2019  12:00 AM
Texoma (TX) 616.79 617.00 -0.21 9/16/2019  12:00 AM
Toledo Bend (TX LA) 165.18 172.00 -6.82 9/16/2019  12:30 AM
Travis (TX) 674.55 681.00 -6.45 9/16/2019  12:00 AM
Twin Buttes (TX) 1,932.01 1,940.00 -7.99 9/15/2019  12:00 AM
Tyler (TX) 373.83 375.50 -1.67 9/15/2019  9:50 AM
Waco (TX) 459.90 462.00 -2.10 9/16/2019  12:15 AM
Waxahachie (TX) 528.91 9/15/2019  12:00 AM
Weatherford (TX) 893.88 896.00 -2.12 9/16/2019  12:45 AM
White River (TX) 2,350.77 9/16/2019  12:15 AM
Whitney (TX) 527.17 533.00 -5.83 9/16/2019  12:15 AM
Worth (TX) 592.74 594.00 -1.26 9/16/2019  12:00 AM
Wright Patman (TX) 225.51 220.60 4.91 9/15/2019  9:50 AM


CURRENT DAILY STREAMFLOW CONDITIONS
High
90th percentile
75th - 89th percentile
25th - 74th percentile
10th - 24th percentile
10th percentile
Low
Not ranked

The colored dots on this map depict streamflow conditions as a percentile, which is computed from the period of record for the current day of the year. Only stations with at least 30 years of record are used. The gray circles indicate other stations that were not ranked in percentiles either because they have fewer than 30 years of record or because they report parameters other than streamflow. Some stations, for example, measure stage only.
U.S. Daily Streamflow Conditions



U.S. Drought Monitor